Airfield :
LOGIN :

Register | Disclaimer

   EN    FR    IT 

 










Legend :    VFR   Marginal VFR   IFR   Intensive IFR   Very Intensive IFR
Visi :
Ceiling :
>= 8 km
>= 3000ft
5 to 8 km
1000 to 3000 ft
1500m to 5 km
500 to 1000 ft
800 to 1500m
200 to 500 ft
< 800m
< 200 ft
Symbols :   Thunderstorms  Fog  Heavy snow  Heavy precipitations  Wind > 20 kt
SIGMETs :     Misc.  Thunderstorms  Icing  Turbulence  Mountain Waves  Volcanic Ashes






- Airport Elevation : 1090 ft
- IATA code : CFE


LFLC - Clermont-Ferrand Auvergne

CURRENT METAR :
  • 040900Z AUTO 05006KT 020V090 9999 SCT022 SCT032 18/11 Q1019 NOSIG

EXPIRED METARs :
  • 040830Z AUTO 01006KT 320V050 9999 SCT021 BKN028 BKN034 17/12 Q1019 NOSIG
  • 040800Z AUTO 02005KT 330V080 9999 FEW020 BKN028 BKN033 16/11 Q1018 NOSIG
  • 040730Z AUTO 02005KT 330V060 9999 BKN019 OVC027 16/11 Q1018 NOSIG
  • 040700Z AUTO 36004KT 330V040 9999 BKN020 BKN027 15/10 Q1018 NOSIG
  • 040630Z AUTO VRB03KT 9999 SCT022 BKN028 15/10 Q1018 NOSIG

TAF TAF LFLC
Valid from the 04 at 09:00 until the 05 at 09:00 UTC


040800Z 0409/0509 36010KT 9999 BKN035
BECMG 0410/0412 NSC
BECMG 0419/0421 VRB02KT
ATIS : +33 4 73 62 74 38



MET'MAP, your aeronautical weather chart ! - Copyright ORBIFLY December 2007 - Disclaimer

ORBIFLY MET'MAP TEAM :

Programming & Development : Alexandra Zaïnal
Concept & original design : Baudouin d'Aumeries
Assistance for programming : Marc-Olivier Méhu
Technical & hardware support : Manuel Goepfert

Contact : metmap@orbifly.com




SOURCES & CREDITS :

   NOAA